sensor_id;sensor_type;location;lat;lon;timestamp;P1;durP1;ratioP1;P2;durP2;ratioP2
52554;SDS011;38455;52.710;6.502;2022-11-03T00:01:38;15.88;;;2.75;;
52554;SDS011;38455;52.710;6.502;2022-11-03T00:04:15;13.25;;;3.03;;
52554;SDS011;38455;52.710;6.502;2022-11-03T00:06:43;17.02;;;2.60;;
52554;SDS011;38455;52.710;6.502;2022-11-03T00:09:11;17.00;;;2.80;;
52554;SDS011;38455;52.710;6.502;2022-11-03T00:11:38;13.00;;;3.25;;
52554;SDS011;38455;52.710;6.502;2022-11-03T00:14:05;12.18;;;2.45;;
52554;SDS011;38455;52.710;6.502;2022-11-03T00:16:31;13.02;;;3.65;;
52554;SDS011;38455;52.710;6.502;2022-11-03T00:18:57;13.45;;;2.45;;
52554;SDS011;38455;52.710;6.502;2022-11-03T00:21:23;9.05;;;2.08;;
52554;SDS011;38455;52.710;6.502;2022-11-03T00:23:49;11.35;;;2.60;;
52554;SDS011;38455;52.710;6.502;2022-11-03T00:26:25;16.33;;;2.90;;
52554;SDS011;38455;52.710;6.502;2022-11-03T00:28:54;10.13;;;3.15;;
52554;SDS011;38455;52.710;6.502;2022-11-03T00:33:50;12.95;;;3.28;;
52554;SDS011;38455;52.710;6.502;2022-11-03T00:36:21;11.05;;;2.17;;
52554;SDS011;38455;52.710;6.502;2022-11-03T00:38:50;13.60;;;2.88;;
52554;SDS011;38455;52.710;6.502;2022-11-03T00:41:16;13.43;;;3.30;;
52554;SDS011;38455;52.710;6.502;2022-11-03T00:43:42;14.63;;;2.72;;
52554;SDS011;38455;52.710;6.502;2022-11-03T00:46:08;8.10;;;2.80;;
52554;SDS011;38455;52.710;6.502;2022-11-03T00:48:35;14.85;;;2.85;;
52554;SDS011;38455;52.710;6.502;2022-11-03T00:51:11;11.32;;;2.20;;
52554;SDS011;38455;52.710;6.502;2022-11-03T00:56:04;12.65;;;2.65;;
52554;SDS011;38455;52.710;6.502;2022-11-03T00:58:32;15.52;;;3.38;;
52554;SDS011;38455;52.710;6.502;2022-11-03T01:01:19;7.00;;;2.10;;
52554;SDS011;38455;52.710;6.502;2022-11-03T01:03:46;9.52;;;2.38;;
52554;SDS011;38455;52.710;6.502;2022-11-03T01:06:32;15.70;;;2.58;;
52554;SDS011;38455;52.710;6.502;2022-11-03T01:14:33;20.88;;;3.38;;
52554;SDS011;38455;52.710;6.502;2022-11-03T01:16:59;13.82;;;3.33;;
52554;SDS011;38455;52.710;6.502;2022-11-03T01:19:26;11.55;;;2.50;;
52554;SDS011;38455;52.710;6.502;2022-11-03T01:21:52;12.55;;;2.83;;
52554;SDS011;38455;52.710;6.502;2022-11-03T01:24:18;11.38;;;2.65;;
52554;SDS011;38455;52.710;6.502;2022-11-03T01:26:44;14.18;;;2.67;;
52554;SDS011;38455;52.710;6.502;2022-11-03T01:29:09;12.48;;;2.70;;
52554;SDS011;38455;52.710;6.502;2022-11-03T01:31:35;12.68;;;3.08;;
52554;SDS011;38455;52.710;6.502;2022-11-03T01:34:01;13.85;;;2.90;;
52554;SDS011;38455;52.710;6.502;2022-11-03T01:36:26;15.20;;;3.22;;
52554;SDS011;38455;52.710;6.502;2022-11-03T01:38:53;11.80;;;2.58;;
52554;SDS011;38455;52.710;6.502;2022-11-03T01:41:21;15.07;;;3.33;;
52554;SDS011;38455;52.710;6.502;2022-11-03T01:44:30;13.80;;;3.17;;
52554;SDS011;38455;52.710;6.502;2022-11-03T01:51:53;10.73;;;2.55;;
52554;SDS011;38455;52.710;6.502;2022-11-03T01:54:25;16.80;;;4.28;;
52554;SDS011;38455;52.710;6.502;2022-11-03T01:56:53;12.23;;;2.78;;
52554;SDS011;38455;52.710;6.502;2022-11-03T01:59:20;16.65;;;3.50;;
52554;SDS011;38455;52.710;6.502;2022-11-03T02:01:48;18.52;;;3.47;;
52554;SDS011;38455;52.710;6.502;2022-11-03T02:04:16;13.43;;;2.58;;
52554;SDS011;38455;52.710;6.502;2022-11-03T02:06:47;16.05;;;3.33;;
52554;SDS011;38455;52.710;6.502;2022-11-03T02:09:18;11.43;;;2.88;;
52554;SDS011;38455;52.710;6.502;2022-11-03T02:11:44;14.25;;;3.55;;
52554;SDS011;38455;52.710;6.502;2022-11-03T02:14:29;14.98;;;2.83;;
52554;SDS011;38455;52.710;6.502;2022-11-03T02:16:56;17.60;;;3.15;;
52554;SDS011;38455;52.710;6.502;2022-11-03T02:19:37;14.77;;;3.17;;
52554;SDS011;38455;52.710;6.502;2022-11-03T02:28:01;10.93;;;3.13;;
52554;SDS011;38455;52.710;6.502;2022-11-03T02:30:33;14.23;;;3.38;;
52554;SDS011;38455;52.710;6.502;2022-11-03T02:33:10;11.50;;;3.42;;
52554;SDS011;38455;52.710;6.502;2022-11-03T02:36:02;12.80;;;2.88;;
52554;SDS011;38455;52.710;6.502;2022-11-03T02:38:35;15.68;;;3.35;;
52554;SDS011;38455;52.710;6.502;2022-11-03T02:41:05;17.17;;;2.92;;
52554;SDS011;38455;52.710;6.502;2022-11-03T02:43:32;14.63;;;3.15;;
52554;SDS011;38455;52.710;6.502;2022-11-03T02:45:58;9.05;;;3.17;;
52554;SDS011;38455;52.710;6.502;2022-11-03T02:48:26;15.55;;;3.03;;
52554;SDS011;38455;52.710;6.502;2022-11-03T02:50:52;15.15;;;4.50;;
52554;SDS011;38455;52.710;6.502;2022-11-03T02:53:18;16.02;;;2.72;;
52554;SDS011;38455;52.710;6.502;2022-11-03T02:55:50;14.20;;;2.88;;
52554;SDS011;38455;52.710;6.502;2022-11-03T03:03:13;17.50;;;3.17;;
52554;SDS011;38455;52.710;6.502;2022-11-03T03:05:45;13.85;;;3.65;;
52554;SDS011;38455;52.710;6.502;2022-11-03T03:08:14;11.57;;;2.53;;
52554;SDS011;38455;52.710;6.502;2022-11-03T03:10:41;17.33;;;3.05;;
52554;SDS011;38455;52.710;6.502;2022-11-03T03:13:09;12.68;;;3.47;;
52554;SDS011;38455;52.710;6.502;2022-11-03T03:24:01;13.57;;;2.45;;
52554;SDS011;38455;52.710;6.502;2022-11-03T03:26:33;15.88;;;3.42;;
52554;SDS011;38455;52.710;6.502;2022-11-03T03:29:07;12.30;;;2.72;;
52554;SDS011;38455;52.710;6.502;2022-11-03T03:31:33;14.95;;;3.03;;
52554;SDS011;38455;52.710;6.502;2022-11-03T03:34:03;17.08;;;2.83;;
52554;SDS011;38455;52.710;6.502;2022-11-03T03:36:30;10.73;;;2.42;;
52554;SDS011;38455;52.710;6.502;2022-11-03T03:38:59;9.27;;;2.33;;
52554;SDS011;38455;52.710;6.502;2022-11-03T03:41:27;13.68;;;3.20;;
52554;SDS011;38455;52.710;6.502;2022-11-03T03:43:58;14.93;;;2.83;;
52554;SDS011;38455;52.710;6.502;2022-11-03T03:46:32;15.65;;;3.67;;
52554;SDS011;38455;52.710;6.502;2022-11-03T03:49:01;9.63;;;2.67;;
52554;SDS011;38455;52.710;6.502;2022-11-03T03:51:28;15.65;;;3.20;;
52554;SDS011;38455;52.710;6.502;2022-11-03T03:53:55;14.48;;;2.60;;
52554;SDS011;38455;52.710;6.502;2022-11-03T03:56:55;12.60;;;2.45;;
52554;SDS011;38455;52.710;6.502;2022-11-03T03:59:18;13.55;;;2.95;;
52554;SDS011;38455;52.710;6.502;2022-11-03T04:01:44;11.52;;;2.70;;
52554;SDS011;38455;52.710;6.502;2022-11-03T04:04:10;15.50;;;3.58;;
52554;SDS011;38455;52.710;6.502;2022-11-03T04:06:35;18.05;;;3.78;;
52554;SDS011;38455;52.710;6.502;2022-11-03T04:09:01;9.18;;;2.58;;
52554;SDS011;38455;52.710;6.502;2022-11-03T04:11:26;10.02;;;2.63;;
52554;SDS011;38455;52.710;6.502;2022-11-03T04:14:21;14.55;;;2.90;;
52554;SDS011;38455;52.710;6.502;2022-11-03T04:17:24;14.90;;;3.28;;
52554;SDS011;38455;52.710;6.502;2022-11-03T04:20:08;12.82;;;3.35;;
52554;SDS011;38455;52.710;6.502;2022-11-03T04:22:56;16.50;;;3.80;;
52554;SDS011;38455;52.710;6.502;2022-11-03T04:25:21;17.55;;;2.90;;
52554;SDS011;38455;52.710;6.502;2022-11-03T04:27:47;6.70;;;2.03;;
52554;SDS011;38455;52.710;6.502;2022-11-03T04:30:17;13.93;;;2.78;;
52554;SDS011;38455;52.710;6.502;2022-11-03T04:32:45;14.18;;;2.40;;
52554;SDS011;38455;52.710;6.502;2022-11-03T04:35:30;15.75;;;2.50;;
52554;SDS011;38455;52.710;6.502;2022-11-03T04:40:46;13.32;;;2.80;;
52554;SDS011;38455;52.710;6.502;2022-11-03T04:43:31;18.75;;;3.05;;
52554;SDS011;38455;52.710;6.502;2022-11-03T04:45:58;15.75;;;2.80;;
52554;SDS011;38455;52.710;6.502;2022-11-03T04:48:25;18.30;;;3.50;;
52554;SDS011;38455;52.710;6.502;2022-11-03T04:50:53;14.45;;;2.83;;
52554;SDS011;38455;52.710;6.502;2022-11-03T04:53:22;14.13;;;2.83;;
52554;SDS011;38455;52.710;6.502;2022-11-03T04:55:50;10.02;;;2.78;;
52554;SDS011;38455;52.710;6.502;2022-11-03T04:58:27;12.20;;;2.50;;
52554;SDS011;38455;52.710;6.502;2022-11-03T05:00:59;14.70;;;2.65;;
52554;SDS011;38455;52.710;6.502;2022-11-03T05:03:33;14.18;;;3.40;;
52554;SDS011;38455;52.710;6.502;2022-11-03T05:06:00;13.63;;;2.83;;
52554;SDS011;38455;52.710;6.502;2022-11-03T05:08:35;11.35;;;2.83;;
52554;SDS011;38455;52.710;6.502;2022-11-03T05:11:03;11.05;;;2.45;;
52554;SDS011;38455;52.710;6.502;2022-11-03T05:13:52;11.63;;;2.70;;
52554;SDS011;38455;52.710;6.502;2022-11-03T05:16:21;13.02;;;3.00;;
52554;SDS011;38455;52.710;6.502;2022-11-03T05:18:48;12.82;;;2.88;;
52554;SDS011;38455;52.710;6.502;2022-11-03T05:21:16;14.48;;;3.15;;
52554;SDS011;38455;52.710;6.502;2022-11-03T05:23:44;11.13;;;2.67;;
52554;SDS011;38455;52.710;6.502;2022-11-03T05:26:19;9.05;;;2.47;;
52554;SDS011;38455;52.710;6.502;2022-11-03T05:28:51;15.35;;;3.42;;
52554;SDS011;38455;52.710;6.502;2022-11-03T05:33:59;10.85;;;2.53;;
52554;SDS011;38455;52.710;6.502;2022-11-03T05:36:27;14.40;;;3.15;;
52554;SDS011;38455;52.710;6.502;2022-11-03T05:38:57;8.57;;;3.20;;
52554;SDS011;38455;52.710;6.502;2022-11-03T05:41:26;17.90;;;2.88;;
52554;SDS011;38455;52.710;6.502;2022-11-03T05:46:30;13.10;;;2.75;;
52554;SDS011;38455;52.710;6.502;2022-11-03T05:49:00;11.23;;;2.65;;
52554;SDS011;38455;52.710;6.502;2022-11-03T05:51:28;8.95;;;2.60;;
52554;SDS011;38455;52.710;6.502;2022-11-03T05:53:59;7.43;;;2.50;;
52554;SDS011;38455;52.710;6.502;2022-11-03T05:56:26;12.93;;;3.10;;
52554;SDS011;38455;52.710;6.502;2022-11-03T05:58:53;14.90;;;3.63;;
52554;SDS011;38455;52.710;6.502;2022-11-03T06:03:54;14.40;;;3.13;;
52554;SDS011;38455;52.710;6.502;2022-11-03T06:08:48;14.60;;;2.63;;
52554;SDS011;38455;52.710;6.502;2022-11-03T06:11:25;11.02;;;3.47;;
52554;SDS011;38455;52.710;6.502;2022-11-03T06:13:55;16.50;;;4.00;;
52554;SDS011;38455;52.710;6.502;2022-11-03T06:16:39;9.15;;;2.92;;
52554;SDS011;38455;52.710;6.502;2022-11-03T06:19:27;9.82;;;3.08;;
52554;SDS011;38455;52.710;6.502;2022-11-03T06:22:02;11.23;;;2.70;;
52554;SDS011;38455;52.710;6.502;2022-11-03T06:24:36;13.60;;;3.13;;
52554;SDS011;38455;52.710;6.502;2022-11-03T06:27:02;11.90;;;2.88;;
52554;SDS011;38455;52.710;6.502;2022-11-03T06:29:28;15.23;;;3.13;;
52554;SDS011;38455;52.710;6.502;2022-11-03T06:31:56;12.02;;;2.92;;
52554;SDS011;38455;52.710;6.502;2022-11-03T06:34:41;11.13;;;3.05;;
52554;SDS011;38455;52.710;6.502;2022-11-03T06:37:26;12.93;;;3.95;;
52554;SDS011;38455;52.710;6.502;2022-11-03T06:42:39;14.00;;;2.67;;
52554;SDS011;38455;52.710;6.502;2022-11-03T06:45:11;13.30;;;3.00;;
52554;SDS011;38455;52.710;6.502;2022-11-03T06:47:43;13.15;;;4.13;;
52554;SDS011;38455;52.710;6.502;2022-11-03T06:50:42;13.15;;;3.75;;
52554;SDS011;38455;52.710;6.502;2022-11-03T06:53:01;16.00;;;3.22;;
52554;SDS011;38455;52.710;6.502;2022-11-03T06:55:29;11.75;;;2.80;;
52554;SDS011;38455;52.710;6.502;2022-11-03T07:00:46;12.32;;;3.65;;
52554;SDS011;38455;52.710;6.502;2022-11-03T07:03:13;12.85;;;3.15;;
52554;SDS011;38455;52.710;6.502;2022-11-03T07:05:47;17.40;;;4.15;;
52554;SDS011;38455;52.710;6.502;2022-11-03T07:08:20;13.93;;;5.30;;
52554;SDS011;38455;52.710;6.502;2022-11-03T07:10:50;14.05;;;3.08;;
52554;SDS011;38455;52.710;6.502;2022-11-03T07:13:26;11.00;;;2.70;;
52554;SDS011;38455;52.710;6.502;2022-11-03T07:15:52;13.20;;;2.53;;
52554;SDS011;38455;52.710;6.502;2022-11-03T07:18:22;10.88;;;3.05;;
52554;SDS011;38455;52.710;6.502;2022-11-03T07:20:51;12.20;;;4.05;;
52554;SDS011;38455;52.710;6.502;2022-11-03T07:23:19;11.82;;;3.28;;
52554;SDS011;38455;52.710;6.502;2022-11-03T07:25:52;11.82;;;3.58;;
52554;SDS011;38455;52.710;6.502;2022-11-03T07:28:24;12.10;;;3.13;;
52554;SDS011;38455;52.710;6.502;2022-11-03T07:31:01;13.77;;;3.28;;
52554;SDS011;38455;52.710;6.502;2022-11-03T07:33:37;15.00;;;3.80;;
52554;SDS011;38455;52.710;6.502;2022-11-03T07:36:03;10.50;;;2.95;;
52554;SDS011;38455;52.710;6.502;2022-11-03T07:38:33;10.98;;;3.30;;
52554;SDS011;38455;52.710;6.502;2022-11-03T07:40:58;15.10;;;3.53;;
52554;SDS011;38455;52.710;6.502;2022-11-03T07:43:31;14.70;;;3.45;;
52554;SDS011;38455;52.710;6.502;2022-11-03T07:45:59;16.63;;;3.45;;
52554;SDS011;38455;52.710;6.502;2022-11-03T07:51:44;18.10;;;4.35;;
52554;SDS011;38455;52.710;6.502;2022-11-03T07:53:49;14.82;;;3.03;;
52554;SDS011;38455;52.710;6.502;2022-11-03T07:56:21;11.82;;;2.67;;
52554;SDS011;38455;52.710;6.502;2022-11-03T07:58:53;19.58;;;4.63;;
52554;SDS011;38455;52.710;6.502;2022-11-03T08:01:21;11.70;;;3.17;;
52554;SDS011;38455;52.710;6.502;2022-11-03T08:03:50;13.90;;;3.05;;
52554;SDS011;38455;52.710;6.502;2022-11-03T08:06:16;10.93;;;3.00;;
52554;SDS011;38455;52.710;6.502;2022-11-03T08:08:42;14.23;;;3.58;;
52554;SDS011;38455;52.710;6.502;2022-11-03T08:11:08;10.77;;;2.97;;
52554;SDS011;38455;52.710;6.502;2022-11-03T08:13:33;15.40;;;4.35;;
52554;SDS011;38455;52.710;6.502;2022-11-03T08:15:59;15.23;;;3.20;;
52554;SDS011;38455;52.710;6.502;2022-11-03T08:18:25;14.98;;;3.78;;
52554;SDS011;38455;52.710;6.502;2022-11-03T08:20:50;14.95;;;2.72;;
52554;SDS011;38455;52.710;6.502;2022-11-03T08:23:16;14.13;;;3.35;;
52554;SDS011;38455;52.710;6.502;2022-11-03T08:25:42;11.68;;;2.72;;
52554;SDS011;38455;52.710;6.502;2022-11-03T08:28:08;14.02;;;3.58;;
52554;SDS011;38455;52.710;6.502;2022-11-03T08:30:34;11.63;;;2.72;;
52554;SDS011;38455;52.710;6.502;2022-11-03T08:32:59;11.13;;;2.83;;
52554;SDS011;38455;52.710;6.502;2022-11-03T08:35:25;14.93;;;2.67;;
52554;SDS011;38455;52.710;6.502;2022-11-03T08:37:51;11.23;;;2.97;;
52554;SDS011;38455;52.710;6.502;2022-11-03T08:40:17;13.63;;;3.28;;
52554;SDS011;38455;52.710;6.502;2022-11-03T08:42:43;11.95;;;3.55;;
52554;SDS011;38455;52.710;6.502;2022-11-03T08:45:09;11.40;;;3.25;;
52554;SDS011;38455;52.710;6.502;2022-11-03T08:47:35;18.83;;;4.45;;
52554;SDS011;38455;52.710;6.502;2022-11-03T08:50:01;10.82;;;3.30;;
52554;SDS011;38455;52.710;6.502;2022-11-03T08:52:27;18.45;;;4.53;;
52554;SDS011;38455;52.710;6.502;2022-11-03T08:54:53;15.57;;;4.88;;
52554;SDS011;38455;52.710;6.502;2022-11-03T08:57:19;11.98;;;2.85;;
52554;SDS011;38455;52.710;6.502;2022-11-03T08:59:44;8.43;;;2.72;;
52554;SDS011;38455;52.710;6.502;2022-11-03T09:02:10;10.40;;;2.95;;
52554;SDS011;38455;52.710;6.502;2022-11-03T09:04:36;8.23;;;2.75;;
52554;SDS011;38455;52.710;6.502;2022-11-03T09:07:01;12.00;;;3.10;;
52554;SDS011;38455;52.710;6.502;2022-11-03T09:09:27;10.57;;;2.95;;
52554;SDS011;38455;52.710;6.502;2022-11-03T09:11:53;13.07;;;3.25;;
52554;SDS011;38455;52.710;6.502;2022-11-03T09:14:19;13.93;;;3.47;;
52554;SDS011;38455;52.710;6.502;2022-11-03T09:16:45;11.57;;;3.75;;
52554;SDS011;38455;52.710;6.502;2022-11-03T09:19:10;9.32;;;2.63;;
52554;SDS011;38455;52.710;6.502;2022-11-03T09:21:36;13.98;;;3.17;;
52554;SDS011;38455;52.710;6.502;2022-11-03T09:24:01;10.82;;;2.92;;
52554;SDS011;38455;52.710;6.502;2022-11-03T09:26:27;11.95;;;2.80;;
52554;SDS011;38455;52.710;6.502;2022-11-03T09:28:53;8.15;;;2.60;;
52554;SDS011;38455;52.710;6.502;2022-11-03T09:31:19;14.23;;;3.22;;
52554;SDS011;38455;52.710;6.502;2022-11-03T09:33:44;13.65;;;2.85;;
52554;SDS011;38455;52.710;6.502;2022-11-03T09:36:10;11.00;;;2.85;;
52554;SDS011;38455;52.710;6.502;2022-11-03T09:38:35;7.43;;;2.60;;
52554;SDS011;38455;52.710;6.502;2022-11-03T09:41:03;9.65;;;3.08;;
52554;SDS011;38455;52.710;6.502;2022-11-03T09:43:30;8.75;;;2.80;;
52554;SDS011;38455;52.710;6.502;2022-11-03T09:45:56;16.55;;;4.38;;
52554;SDS011;38455;52.710;6.502;2022-11-03T09:48:23;11.65;;;3.22;;
52554;SDS011;38455;52.710;6.502;2022-11-03T09:50:50;9.95;;;2.72;;
52554;SDS011;38455;52.710;6.502;2022-11-03T09:53:17;9.43;;;2.72;;
52554;SDS011;38455;52.710;6.502;2022-11-03T09:55:44;11.48;;;2.75;;
52554;SDS011;38455;52.710;6.502;2022-11-03T09:58:14;14.02;;;2.97;;
52554;SDS011;38455;52.710;6.502;2022-11-03T10:00:41;13.70;;;4.53;;
52554;SDS011;38455;52.710;6.502;2022-11-03T10:03:11;11.00;;;2.88;;
52554;SDS011;38455;52.710;6.502;2022-11-03T10:05:39;8.43;;;2.55;;
52554;SDS011;38455;52.710;6.502;2022-11-03T10:08:11;15.10;;;3.67;;
52554;SDS011;38455;52.710;6.502;2022-11-03T10:10:51;14.10;;;3.30;;
52554;SDS011;38455;52.710;6.502;2022-11-03T10:13:21;13.85;;;3.30;;
52554;SDS011;38455;52.710;6.502;2022-11-03T10:15:53;11.90;;;3.25;;
52554;SDS011;38455;52.710;6.502;2022-11-03T10:18:20;9.70;;;2.92;;
52554;SDS011;38455;52.710;6.502;2022-11-03T10:20:45;10.75;;;2.80;;
52554;SDS011;38455;52.710;6.502;2022-11-03T10:23:11;7.05;;;2.88;;
52554;SDS011;38455;52.710;6.502;2022-11-03T10:25:37;13.60;;;5.05;;
52554;SDS011;38455;52.710;6.502;2022-11-03T10:30:49;13.57;;;2.40;;
52554;SDS011;38455;52.710;6.502;2022-11-03T10:33:25;8.43;;;2.22;;
52554;SDS011;38455;52.710;6.502;2022-11-03T10:36:03;11.00;;;2.30;;
52554;SDS011;38455;52.710;6.502;2022-11-03T10:38:44;16.30;;;3.03;;
52554;SDS011;38455;52.710;6.502;2022-11-03T10:43:41;8.65;;;2.15;;
52554;SDS011;38455;52.710;6.502;2022-11-03T10:46:14;8.20;;;2.10;;
52554;SDS011;38455;52.710;6.502;2022-11-03T10:48:44;12.00;;;2.58;;
52554;SDS011;38455;52.710;6.502;2022-11-03T10:51:25;9.38;;;3.08;;
52554;SDS011;38455;52.710;6.502;2022-11-03T10:53:50;9.90;;;2.25;;
52554;SDS011;38455;52.710;6.502;2022-11-03T10:56:16;9.75;;;2.20;;
52554;SDS011;38455;52.710;6.502;2022-11-03T10:58:42;10.68;;;2.20;;
52554;SDS011;38455;52.710;6.502;2022-11-03T11:01:08;8.30;;;2.03;;
52554;SDS011;38455;52.710;6.502;2022-11-03T11:03:37;7.32;;;2.53;;
52554;SDS011;38455;52.710;6.502;2022-11-03T11:06:15;7.95;;;2.03;;
52554;SDS011;38455;52.710;6.502;2022-11-03T11:08:47;9.20;;;2.50;;
52554;SDS011;38455;52.710;6.502;2022-11-03T11:11:15;7.03;;;2.40;;
52554;SDS011;38455;52.710;6.502;2022-11-03T11:13:42;8.27;;;2.40;;
52554;SDS011;38455;52.710;6.502;2022-11-03T11:19:22;5.25;;;1.48;;
52554;SDS011;38455;52.710;6.502;2022-11-03T11:29:59;7.90;;;2.13;;
52554;SDS011;38455;52.710;6.502;2022-11-03T11:35:07;10.63;;;1.80;;
52554;SDS011;38455;52.710;6.502;2022-11-03T11:37:35;13.20;;;2.30;;
52554;SDS011;38455;52.710;6.502;2022-11-03T11:40:02;9.40;;;2.38;;
52554;SDS011;38455;52.710;6.502;2022-11-03T11:48:34;14.52;;;2.13;;
52554;SDS011;38455;52.710;6.502;2022-11-03T11:51:00;7.38;;;1.95;;
52554;SDS011;38455;52.710;6.502;2022-11-03T11:53:30;9.23;;;2.70;;
52554;SDS011;38455;52.710;6.502;2022-11-03T11:56:02;10.80;;;2.40;;
52554;SDS011;38455;52.710;6.502;2022-11-03T11:58:41;10.68;;;2.50;;
52554;SDS011;38455;52.710;6.502;2022-11-03T12:03:46;9.35;;;2.80;;
52554;SDS011;38455;52.710;6.502;2022-11-03T12:06:12;9.23;;;2.10;;
52554;SDS011;38455;52.710;6.502;2022-11-03T12:08:38;10.57;;;2.40;;
52554;SDS011;38455;52.710;6.502;2022-11-03T12:11:05;8.48;;;2.50;;
52554;SDS011;38455;52.710;6.502;2022-11-03T12:13:49;6.88;;;2.00;;
52554;SDS011;38455;52.710;6.502;2022-11-03T12:16:26;18.88;;;3.15;;
52554;SDS011;38455;52.710;6.502;2022-11-03T12:22:06;9.25;;;1.75;;
52554;SDS011;38455;52.710;6.502;2022-11-03T12:24:35;8.13;;;2.53;;
52554;SDS011;38455;52.710;6.502;2022-11-03T12:27:02;5.90;;;2.05;;
52554;SDS011;38455;52.710;6.502;2022-11-03T12:29:40;8.20;;;2.17;;
52554;SDS011;38455;52.710;6.502;2022-11-03T12:32:06;12.02;;;2.15;;
52554;SDS011;38455;52.710;6.502;2022-11-03T12:34:32;7.07;;;1.98;;
52554;SDS011;38455;52.710;6.502;2022-11-03T12:36:57;7.43;;;2.03;;
52554;SDS011;38455;52.710;6.502;2022-11-03T12:39:23;10.88;;;2.40;;
52554;SDS011;38455;52.710;6.502;2022-11-03T12:41:49;10.13;;;2.17;;
52554;SDS011;38455;52.710;6.502;2022-11-03T12:44:14;9.77;;;2.85;;
52554;SDS011;38455;52.710;6.502;2022-11-03T12:46:40;9.55;;;2.17;;
52554;SDS011;38455;52.710;6.502;2022-11-03T12:49:06;8.07;;;2.03;;
52554;SDS011;38455;52.710;6.502;2022-11-03T12:51:32;8.55;;;2.25;;
52554;SDS011;38455;52.710;6.502;2022-11-03T12:53:58;8.52;;;1.92;;
52554;SDS011;38455;52.710;6.502;2022-11-03T12:56:24;8.07;;;2.35;;
52554;SDS011;38455;52.710;6.502;2022-11-03T12:58:49;9.43;;;2.30;;
52554;SDS011;38455;52.710;6.502;2022-11-03T13:01:15;7.43;;;1.90;;
52554;SDS011;38455;52.710;6.502;2022-11-03T13:03:41;7.45;;;2.00;;
52554;SDS011;38455;52.710;6.502;2022-11-03T13:06:08;7.75;;;1.85;;
52554;SDS011;38455;52.710;6.502;2022-11-03T13:08:35;6.90;;;1.75;;
52554;SDS011;38455;52.710;6.502;2022-11-03T13:11:02;3.45;;;1.52;;
52554;SDS011;38455;52.710;6.502;2022-11-03T13:13:27;5.10;;;1.92;;
52554;SDS011;38455;52.710;6.502;2022-11-03T13:15:53;6.05;;;2.13;;
52554;SDS011;38455;52.710;6.502;2022-11-03T13:18:19;12.38;;;3.20;;
52554;SDS011;38455;52.710;6.502;2022-11-03T13:20:46;9.05;;;2.20;;
52554;SDS011;38455;52.710;6.502;2022-11-03T13:23:12;4.13;;;1.40;;
52554;SDS011;38455;52.710;6.502;2022-11-03T13:25:38;7.40;;;2.20;;
52554;SDS011;38455;52.710;6.502;2022-11-03T13:28:04;7.85;;;1.85;;
52554;SDS011;38455;52.710;6.502;2022-11-03T13:30:30;11.25;;;2.75;;
52554;SDS011;38455;52.710;6.502;2022-11-03T13:32:57;8.75;;;2.17;;
52554;SDS011;38455;52.710;6.502;2022-11-03T13:35:23;8.38;;;1.70;;
52554;SDS011;38455;52.710;6.502;2022-11-03T13:37:49;8.52;;;2.30;;
52554;SDS011;38455;52.710;6.502;2022-11-03T13:40:15;8.52;;;2.50;;
52554;SDS011;38455;52.710;6.502;2022-11-03T13:42:41;9.05;;;2.03;;
52554;SDS011;38455;52.710;6.502;2022-11-03T13:45:07;9.07;;;3.53;;
52554;SDS011;38455;52.710;6.502;2022-11-03T13:47:33;6.00;;;1.65;;
52554;SDS011;38455;52.710;6.502;2022-11-03T13:49:59;6.68;;;1.83;;
52554;SDS011;38455;52.710;6.502;2022-11-03T13:52:26;5.25;;;1.88;;
52554;SDS011;38455;52.710;6.502;2022-11-03T13:54:52;8.40;;;1.50;;
52554;SDS011;38455;52.710;6.502;2022-11-03T13:57:18;7.43;;;1.83;;
52554;SDS011;38455;52.710;6.502;2022-11-03T13:59:44;6.85;;;1.80;;
52554;SDS011;38455;52.710;6.502;2022-11-03T14:02:10;3.55;;;2.00;;
52554;SDS011;38455;52.710;6.502;2022-11-03T14:04:36;5.43;;;1.83;;
52554;SDS011;38455;52.710;6.502;2022-11-03T14:07:03;8.43;;;2.28;;
52554;SDS011;38455;52.710;6.502;2022-11-03T14:09:29;6.93;;;1.88;;
52554;SDS011;38455;52.710;6.502;2022-11-03T14:11:55;13.57;;;2.33;;
52554;SDS011;38455;52.710;6.502;2022-11-03T14:14:40;4.97;;;1.30;;
52554;SDS011;38455;52.710;6.502;2022-11-03T14:17:06;6.72;;;1.55;;
52554;SDS011;38455;52.710;6.502;2022-11-03T14:19:32;7.28;;;1.92;;
52554;SDS011;38455;52.710;6.502;2022-11-03T14:21:58;6.05;;;1.42;;
52554;SDS011;38455;52.710;6.502;2022-11-03T14:24:23;7.40;;;2.53;;
52554;SDS011;38455;52.710;6.502;2022-11-03T14:26:49;5.97;;;1.52;;
52554;SDS011;38455;52.710;6.502;2022-11-03T14:29:15;7.57;;;1.67;;
52554;SDS011;38455;52.710;6.502;2022-11-03T14:31:40;4.25;;;1.48;;
52554;SDS011;38455;52.710;6.502;2022-11-03T14:34:06;5.40;;;1.40;;
52554;SDS011;38455;52.710;6.502;2022-11-03T14:36:32;6.65;;;1.60;;
52554;SDS011;38455;52.710;6.502;2022-11-03T14:38:57;3.90;;;1.33;;
52554;SDS011;38455;52.710;6.502;2022-11-03T14:41:23;6.32;;;1.60;;
52554;SDS011;38455;52.710;6.502;2022-11-03T14:44:07;6.18;;;1.33;;
52554;SDS011;38455;52.710;6.502;2022-11-03T14:46:33;4.32;;;1.65;;
52554;SDS011;38455;52.710;6.502;2022-11-03T14:48:58;6.38;;;1.42;;
52554;SDS011;38455;52.710;6.502;2022-11-03T14:51:26;5.13;;;2.00;;
52554;SDS011;38455;52.710;6.502;2022-11-03T14:53:52;10.73;;;1.75;;
52554;SDS011;38455;52.710;6.502;2022-11-03T14:56:17;8.23;;;1.33;;
52554;SDS011;38455;52.710;6.502;2022-11-03T14:58:43;10.70;;;1.55;;
52554;SDS011;38455;52.710;6.502;2022-11-03T15:01:09;4.05;;;1.52;;
52554;SDS011;38455;52.710;6.502;2022-11-03T15:03:34;3.72;;;1.42;;
52554;SDS011;38455;52.710;6.502;2022-11-03T15:06:00;4.75;;;1.27;;
52554;SDS011;38455;52.710;6.502;2022-11-03T15:08:26;4.10;;;1.95;;
52554;SDS011;38455;52.710;6.502;2022-11-03T15:10:53;7.47;;;1.63;;
52554;SDS011;38455;52.710;6.502;2022-11-03T15:13:19;9.18;;;2.10;;
52554;SDS011;38455;52.710;6.502;2022-11-03T15:15:45;6.13;;;1.30;;
52554;SDS011;38455;52.710;6.502;2022-11-03T15:18:10;6.70;;;1.42;;
52554;SDS011;38455;52.710;6.502;2022-11-03T15:20:36;3.42;;;1.10;;
52554;SDS011;38455;52.710;6.502;2022-11-03T15:23:02;10.63;;;1.50;;
52554;SDS011;38455;52.710;6.502;2022-11-03T15:25:32;14.68;;;2.75;;
52554;SDS011;38455;52.710;6.502;2022-11-03T15:27:58;6.43;;;1.30;;
52554;SDS011;38455;52.710;6.502;2022-11-03T15:30:24;4.75;;;1.73;;
52554;SDS011;38455;52.710;6.502;2022-11-03T15:32:50;7.35;;;1.52;;
52554;SDS011;38455;52.710;6.502;2022-11-03T15:35:16;7.15;;;1.33;;
52554;SDS011;38455;52.710;6.502;2022-11-03T15:37:42;5.22;;;1.40;;
52554;SDS011;38455;52.710;6.502;2022-11-03T15:40:09;6.80;;;1.42;;
52554;SDS011;38455;52.710;6.502;2022-11-03T15:42:37;3.10;;;1.23;;
52554;SDS011;38455;52.710;6.502;2022-11-03T15:45:04;6.43;;;1.48;;
52554;SDS011;38455;52.710;6.502;2022-11-03T15:47:31;8.38;;;1.63;;
52554;SDS011;38455;52.710;6.502;2022-11-03T15:49:57;5.13;;;1.50;;
52554;SDS011;38455;52.710;6.502;2022-11-03T15:52:24;7.22;;;1.40;;
52554;SDS011;38455;52.710;6.502;2022-11-03T15:54:49;7.28;;;2.13;;
52554;SDS011;38455;52.710;6.502;2022-11-03T15:57:15;8.27;;;1.35;;
52554;SDS011;38455;52.710;6.502;2022-11-03T15:59:41;7.38;;;1.70;;
52554;SDS011;38455;52.710;6.502;2022-11-03T16:02:07;6.63;;;2.03;;
52554;SDS011;38455;52.710;6.502;2022-11-03T16:04:33;9.00;;;1.73;;
52554;SDS011;38455;52.710;6.502;2022-11-03T16:06:59;4.10;;;1.98;;
52554;SDS011;38455;52.710;6.502;2022-11-03T16:09:24;6.75;;;1.33;;
52554;SDS011;38455;52.710;6.502;2022-11-03T16:11:50;10.25;;;2.05;;
52554;SDS011;38455;52.710;6.502;2022-11-03T16:14:15;7.43;;;1.73;;
52554;SDS011;38455;52.710;6.502;2022-11-03T16:16:42;11.90;;;2.10;;